createdAt,value
2023-04-15T00:00:29.534Z,2.85
2023-04-15T00:05:23.393Z,2.13
2023-04-15T00:10:16.225Z,1.65
2023-04-15T00:15:13.382Z,1.73
2023-04-15T00:20:07.419Z,2.58
2023-04-15T00:25:01.888Z,1.83
2023-04-15T00:29:55.207Z,2.53
2023-04-15T00:34:47.859Z,1.98
2023-04-15T00:39:40.886Z,2.17
2023-04-15T00:44:33.977Z,2.78
2023-04-15T00:49:27.554Z,1.85
2023-04-15T00:54:20.491Z,1.55
2023-04-15T00:59:13.237Z,2.20
2023-04-15T01:04:06.941Z,1.80
2023-04-15T01:09:00.762Z,1.58
2023-04-15T01:13:54.556Z,1.17
2023-04-15T01:18:47.744Z,1.90
2023-04-15T01:23:41.969Z,0.50
2023-04-15T01:28:36.271Z,2.00
2023-04-15T01:33:30.007Z,1.75
2023-04-15T01:38:23.994Z,0.63
2023-04-15T01:43:17.090Z,0.50
2023-04-15T01:48:10.338Z,1.30
2023-04-15T01:53:03.978Z,1.05
2023-04-15T01:57:56.300Z,1.20
2023-04-15T02:02:49.972Z,0.98
2023-04-15T02:07:47.557Z,1.80
2023-04-15T02:12:40.495Z,2.17
2023-04-15T02:17:38.334Z,1.13
2023-04-15T02:22:31.143Z,1.33
2023-04-15T02:27:24.592Z,2.75
2023-04-15T02:32:18.143Z,2.15
2023-04-15T02:37:14.162Z,1.35
2023-04-15T02:42:07.111Z,2.33
2023-04-15T02:46:59.774Z,0.95
2023-04-15T02:51:52.225Z,3.20
2023-04-15T02:56:46.216Z,1.55
2023-04-15T03:01:39.702Z,1.80
2023-04-15T03:06:33.582Z,1.67
2023-04-15T03:11:28.374Z,1.52
2023-04-15T03:16:21.958Z,1.27
2023-04-15T03:21:15.456Z,0.93
2023-04-15T03:26:09.237Z,1.95
2023-04-15T03:31:02.819Z,0.75
2023-04-15T03:35:56.600Z,1.80
2023-04-15T03:40:49.633Z,0.82
2023-04-15T03:45:42.762Z,1.60
2023-04-15T03:50:35.970Z,2.35
2023-04-15T03:55:29.999Z,1.77
2023-04-15T04:00:23.885Z,2.30
2023-04-15T04:05:17.623Z,3.53
2023-04-15T04:10:11.777Z,3.10
2023-04-15T04:15:07.413Z,1.67
2023-04-15T04:20:00.638Z,3.25
2023-04-15T04:24:54.244Z,1.70
2023-04-15T04:29:48.386Z,3.75
2023-04-15T04:34:41.644Z,4.53
2023-04-15T04:39:35.012Z,3.58
2023-04-15T04:44:28.352Z,1.90
2023-04-15T04:49:21.777Z,1.98
2023-04-15T04:54:15.334Z,1.98
2023-04-15T04:59:08.488Z,5.10
2023-04-15T05:04:03.671Z,1.50
2023-04-15T05:08:57.529Z,2.22
2023-04-15T05:13:54.520Z,2.33
2023-04-15T05:18:48.299Z,1.65
2023-04-15T05:23:41.683Z,2.45
2023-04-15T05:28:35.139Z,1.63
2023-04-15T05:33:28.310Z,1.92
2023-04-15T05:38:21.746Z,3.75
2023-04-15T05:43:15.572Z,1.25
2023-04-15T05:48:09.347Z,2.65
2023-04-15T05:53:04.804Z,5.00
2023-04-15T05:57:57.974Z,3.90
2023-04-15T06:02:52.357Z,7.05
2023-04-15T06:07:46.127Z,2.75
2023-04-15T06:12:41.048Z,5.05
2023-04-15T06:17:35.361Z,2.35
2023-04-15T06:22:28.133Z,4.30
2023-04-15T06:27:21.407Z,2.72
2023-04-15T06:32:14.468Z,7.97
2023-04-15T06:37:07.301Z,3.40
2023-04-15T06:42:00.800Z,8.85
2023-04-15T06:46:54.340Z,2.38
2023-04-15T06:51:47.878Z,6.38
2023-04-15T06:56:42.871Z,5.13
2023-04-15T07:01:36.447Z,9.82
2023-04-15T07:06:29.803Z,8.98
2023-04-15T07:11:22.416Z,7.68
2023-04-15T07:16:15.715Z,8.10
2023-04-15T07:21:08.561Z,13.32
2023-04-15T07:26:02.004Z,7.03
2023-04-15T07:30:56.151Z,6.38
2023-04-15T07:35:49.483Z,5.82
2023-04-15T07:40:42.487Z,12.68
2023-04-15T07:45:36.270Z,4.53
2023-04-15T07:50:29.117Z,5.55
2023-04-15T07:55:28.148Z,5.63
2023-04-15T08:00:21.732Z,3.55
2023-04-15T08:05:16.027Z,23.17
2023-04-15T08:10:10.834Z,6.15
2023-04-15T08:15:04.682Z,5.65
2023-04-15T08:19:57.870Z,19.45
2023-04-15T08:24:55.178Z,8.43
2023-04-15T08:29:48.134Z,7.97
2023-04-15T08:34:42.259Z,11.82
2023-04-15T08:39:35.050Z,10.13
2023-04-15T08:44:32.194Z,5.85
2023-04-15T08:49:28.848Z,6.35
2023-04-15T08:54:21.562Z,4.03
2023-04-15T08:59:14.061Z,6.85
2023-04-15T09:04:09.138Z,5.18
2023-04-15T09:09:03.391Z,7.45
2023-04-15T09:13:57.692Z,7.32
2023-04-15T09:18:51.187Z,6.50
2023-04-15T09:24:04.725Z,4.93
2023-04-15T09:29:10.584Z,6.40
2023-04-15T09:34:03.918Z,10.48
2023-04-15T09:39:01.395Z,8.25
2023-04-15T09:43:55.144Z,10.30
2023-04-15T09:48:48.960Z,25.73
2023-04-15T09:53:41.843Z,13.50
2023-04-15T09:58:36.293Z,8.15
2023-04-15T10:03:35.895Z,6.90
2023-04-15T10:08:31.184Z,7.63
2023-04-15T10:13:30.252Z,9.48
2023-04-15T10:18:26.586Z,8.18
2023-04-15T10:23:19.762Z,7.18
2023-04-15T10:28:13.093Z,11.52
2023-04-15T10:33:07.175Z,6.45
2023-04-15T10:38:00.497Z,11.70
2023-04-15T10:42:55.109Z,9.43
2023-04-15T10:47:47.576Z,14.27
2023-04-15T10:52:43.775Z,24.08
2023-04-15T10:57:40.748Z,37.90
2023-04-15T11:02:48.970Z,25.75
2023-04-15T11:07:50.263Z,20.85
2023-04-15T11:12:44.709Z,21.48
2023-04-15T11:17:37.512Z,20.50
2023-04-15T11:22:31.025Z,23.60
2023-04-15T11:27:24.023Z,21.40
2023-04-15T11:32:17.314Z,24.85
2023-04-15T11:37:10.922Z,18.25
2023-04-15T11:42:04.518Z,23.27
2023-04-15T11:46:57.922Z,15.63
2023-04-15T11:51:51.355Z,25.42
2023-04-15T11:56:51.341Z,19.08
2023-04-15T12:01:44.402Z,14.52
2023-04-15T12:06:38.951Z,14.88
2023-04-15T12:11:53.912Z,13.80
2023-04-15T12:16:51.760Z,14.27
2023-04-15T12:21:50.065Z,19.20
2023-04-15T12:26:52.057Z,13.65
2023-04-15T12:31:53.363Z,19.52
2023-04-15T12:36:51.527Z,12.48
2023-04-15T12:41:43.843Z,13.13
2023-04-15T12:46:36.443Z,12.32
2023-04-15T12:51:29.553Z,12.93
2023-04-15T12:56:22.116Z,9.32
2023-04-15T13:01:15.351Z,10.27
2023-04-15T13:06:09.265Z,16.67
2023-04-15T13:11:01.321Z,7.07
2023-04-15T13:15:54.568Z,9.40
2023-04-15T13:20:48.633Z,8.05
2023-04-15T13:25:42.605Z,9.88
2023-04-15T13:30:34.453Z,8.15
2023-04-15T13:35:28.057Z,10.32
2023-04-15T13:40:20.891Z,14.45
2023-04-15T13:45:13.969Z,8.85
2023-04-15T13:50:08.322Z,11.98
2023-04-15T13:55:06.944Z,9.82
2023-04-15T14:00:13.118Z,12.13
2023-04-15T14:05:07.016Z,11.20
2023-04-15T14:10:00.849Z,12.82
2023-04-15T14:14:54.735Z,8.00
2023-04-15T14:19:47.052Z,7.93
2023-04-15T14:24:40.809Z,10.70
2023-04-15T14:29:34.259Z,11.65
2023-04-15T14:34:26.966Z,10.23
2023-04-15T14:39:21.338Z,8.75
2023-04-15T14:44:14.340Z,8.15
2023-04-15T14:49:07.973Z,9.43
2023-04-15T14:54:01.180Z,9.75
2023-04-15T14:58:54.812Z,7.60
2023-04-15T15:03:46.828Z,8.90
2023-04-15T15:08:39.894Z,15.55
2023-04-15T15:13:32.781Z,7.25
2023-04-15T15:18:26.288Z,5.72
2023-04-15T15:23:19.975Z,9.90
2023-04-15T15:28:12.159Z,6.70
2023-04-15T15:33:05.589Z,8.27
2023-04-15T15:37:59.092Z,10.80
2023-04-15T15:42:51.728Z,14.68
2023-04-15T15:47:44.757Z,22.63
2023-04-15T15:52:37.204Z,21.33
2023-04-15T15:57:31.294Z,21.63
2023-04-15T16:02:45.845Z,21.63
2023-04-15T16:07:39.845Z,17.45
2023-04-15T16:12:34.821Z,14.30
2023-04-15T16:17:28.094Z,16.13
2023-04-15T16:22:20.285Z,17.38
2023-04-15T16:27:16.238Z,18.85
2023-04-15T16:32:09.486Z,12.00
2023-04-15T16:37:04.285Z,15.60
2023-04-15T16:41:58.497Z,9.93
2023-04-15T16:46:51.535Z,9.65
2023-04-15T16:51:44.931Z,8.73
2023-04-15T16:56:37.152Z,10.70
2023-04-15T17:01:31.128Z,14.30
2023-04-15T17:06:23.717Z,13.25
2023-04-15T17:11:17.450Z,8.65
2023-04-15T17:16:09.723Z,8.63
2023-04-15T17:21:03.873Z,10.05
2023-04-15T17:25:58.253Z,12.68
2023-04-15T17:30:51.537Z,18.65
2023-04-15T17:35:45.521Z,10.82
2023-04-15T17:40:38.003Z,12.02
2023-04-15T17:45:31.752Z,10.10
2023-04-15T17:50:24.416Z,13.70
2023-04-15T17:55:17.781Z,12.15
2023-04-15T18:00:12.402Z,5.07
2023-04-15T18:05:06.801Z,10.18
2023-04-15T18:09:59.575Z,12.75
2023-04-15T18:14:52.148Z,11.55
2023-04-15T18:19:46.487Z,26.88
2023-04-15T18:24:40.874Z,15.27
2023-04-15T18:29:39.881Z,8.02
2023-04-15T18:34:33.255Z,17.52
2023-04-15T18:39:27.411Z,10.60
2023-04-15T18:44:20.930Z,10.43
2023-04-15T18:49:14.489Z,17.65
2023-04-15T18:54:07.463Z,15.30
2023-04-15T18:59:27.550Z,30.65
2023-04-15T19:04:12.910Z,22.85
2023-04-15T19:09:07.200Z,28.58
2023-04-15T19:14:00.879Z,21.13
2023-04-15T19:18:53.700Z,19.15
2023-04-15T19:23:45.888Z,21.48
2023-04-15T19:28:38.839Z,24.13
2023-04-15T19:33:32.933Z,28.38
2023-04-15T19:38:27.428Z,19.13
2023-04-15T19:43:21.376Z,18.52
2023-04-15T19:48:14.463Z,19.85
2023-04-15T19:53:07.607Z,17.65
2023-04-15T19:58:01.843Z,14.75
2023-04-15T20:02:58.319Z,21.52
2023-04-15T20:07:55.437Z,15.52
2023-04-15T20:12:52.675Z,12.48
2023-04-15T20:17:47.440Z,15.07
2023-04-15T20:22:40.672Z,11.32
2023-04-15T20:27:34.043Z,16.77
2023-04-15T20:32:28.623Z,9.98
2023-04-15T20:37:23.213Z,8.52
2023-04-15T20:42:16.194Z,8.73
2023-04-15T20:47:09.768Z,11.45
2023-04-15T20:52:03.106Z,10.40
2023-04-15T20:56:58.053Z,10.95
2023-04-15T21:01:51.170Z,7.35
2023-04-15T21:06:44.942Z,8.15
2023-04-15T21:11:57.427Z,9.07
2023-04-15T21:16:51.684Z,7.30
2023-04-15T21:21:46.611Z,7.05
2023-04-15T21:26:40.209Z,4.72
2023-04-15T21:31:34.742Z,8.65
2023-04-15T21:36:29.221Z,4.93
2023-04-15T21:41:23.274Z,6.03
2023-04-15T21:46:24.048Z,4.53
2023-04-15T21:51:17.652Z,6.30
2023-04-15T21:56:11.487Z,8.93
2023-04-15T22:01:06.665Z,5.13
2023-04-15T22:06:01.255Z,4.57
2023-04-15T22:10:54.817Z,4.47
2023-04-15T22:15:48.928Z,5.00
2023-04-15T22:20:42.145Z,7.53
2023-04-15T22:25:39.504Z,3.30
2023-04-15T22:30:33.376Z,6.97
2023-04-15T22:35:26.948Z,3.85
2023-04-15T22:40:21.301Z,3.65
2023-04-15T22:45:14.796Z,6.47
2023-04-15T22:50:08.033Z,6.10
2023-04-15T22:55:00.747Z,2.28
2023-04-15T22:59:54.788Z,1.30
2023-04-15T23:04:47.802Z,2.35
2023-04-15T23:09:41.814Z,3.88
2023-04-15T23:14:34.465Z,1.90
2023-04-15T23:19:28.071Z,3.05
2023-04-15T23:24:23.031Z,2.72
2023-04-15T23:29:15.864Z,3.75
2023-04-15T23:34:09.865Z,3.45
2023-04-15T23:39:02.449Z,2.08
2023-04-15T23:43:55.027Z,2.95
2023-04-15T23:48:49.735Z,4.22
2023-04-15T23:53:42.463Z,2.53
2023-04-15T23:58:36.600Z,1.35
